Mobridge, SD

12:02 PM CDT on August 23, 2014 (GMT -0500)
Faith | Change Station
CLOSE
Current Station
Airport
Location: Faith,
Elevation: 2582 ft
Nearby Weather Stations
Active Advisory: Areal Flood Watch

Elev 2582 ft 45.03 °N, 102.02 °W | Updated 6 minutes ago

Thunderstorm
Thunderstorm
63 °F
Feels Like 63 °F
N
15
Wind Variable Wind from NE
Gusts 29 mph

Today
High -- | Low -- °F
--% Chance of Precip.
Yesterday
High -- | Low -- °F
Precip. -- in
6:52 AM 8:35 PM
Waning Crescent, 3% visible
Pressure 29.83 in
Visibility -9999.0 miles
Clouds
Dew Point 62 °F
Humidity 97%
Rainfall 1.70 in
Snow Depth Not available.
UV Not available.
Pollen .30 out of 12
Air Quality Not available.
Flu Activity Not available.
METAR KD07 231656Z AUTO 05013KT 17/17 A2985 RMK AO1 SLP101 P0012 T01720167

More Conditions Fewer Conditions

Pressure 29.83 in
Visibility -9999.0 miles
Clouds
Dew Point 62 °F
Humidity 97%
Rainfall 1.70 in
Snow Depth Not available.
UV Not available.
Pollen .30 out of 12
Air Quality Not available.
Flu Activity Not available.
METAR KD07 231656Z AUTO 05013KT 17/17 A2985 RMK AO1 SLP101 P0012 T01720167

More Conditions Fewer Conditions

10-Day Weather Forecast

Almanac

Astronomy

Aug. 23, 2014 Rise Set
Actual Time 6:52 AM CDT 8:35 PM CDT
Civil Twilight 6:20 AM CDT 9:06 PM CDT
Nautical Twilight 5:42 AM CDT 9:45 PM CDT
Astronomical Twilight 5:00 AM CDT 10:26 PM CDT
Moon 5:07 AM CDT 7:21 PM CDT
Length of Visible Light 14h 46m
Length of Day
13h 43m
Tomorrow will be 3m 0s shorter.
Waning Crescent, 3% of the Moon is Illuminated
Today
Waning Crescent
Aug 25
New
Sep 2
First Quarter
Sep 8
Full
Sep 15
Last Quarter

Today's Extremes

State Highs State Lows

Community

WunderPhotos

Upload Photos

1,746,529 photos uploaded!

WunderBlogs® & News

By Dr. Jeff Masters
Director of Meteorology, Weather Underground
By Kari Strenfel
Meteorologist, Weather Underground
By Christopher C. Burt
Weather Historian, Weather Underground
August 23, 2014
August 23, 2014
August 23, 2014

Nearby

Snow Depth

Station Depth Elevation
North Rapid Creek 0 in 6130 ft
Blind Park 0 in 6890 ft

Earthquake Activity

City Distance Mag. Time & Date
No recent earthquake activity has been reported nearby.
Minimum magnitude displayed is 2.5.

Coastal Water Temperatures

Place Temperature
No Stations Reporting

Nearby Weather Stations